AirNav   Everest Fuels
 
 1243 users online  

63Y Tyler Municipal Airport
Tyler, Minnesota, USA

GOING TO TYLER?


FAA INFORMATION EFFECTIVE 18 JUNE 2020

Location

FAA Identifier: 63Y
Lat/Long: 44-17-17.8450N 096-09-03.4400W
44-17.297417N 096-09.057333W
44.2882903,-96.1509556
(estimated)
Elevation: 1742 ft. / 531 m (estimated)
Variation: 06E (1985)
From city: 1 mile NW of TYLER, MN
Time zone: UTC -5 (UTC -6 during Standard Time)
Zip code: 56178

Airport Operations

Airport use: Open to the public
Activation date: 12/1947
Control tower: no
ARTCC: MINNEAPOLIS CENTER
FSS: PRINCETON FLIGHT SERVICE STATION
NOTAMs facility: PNM (NOTAM-D service available)
Attendance: UNATNDD
Wind indicator: lighted
Segmented circle: no
Lights: SS-SR
Beacon: white-green (lighted land airport)
Operates sunset to sunrise.

Airport Communications

CTAF: 122.9
WX AWOS-3PT at MML (17 nm NE): 120.150 (507-532-5269)
WX AWOS-3 at PQN (19 nm S): 118.375 (507-825-6895)

Nearby radio navigation aids

VOR radial/distance  VOR name  Freq  Var
MMLr231/17.0MARSHALL VOR/DME111.0005E

Airport Services

Parking: tiedowns
Airframe service: NONE
Powerplant service: NONE
Bottled oxygen: NONE
Bulk oxygen: NONE

Runway Information

Runway 14/32

Dimensions: 2517 x 160 ft. / 767 x 49 m
Surface: turf, in fair condition
BARE SPOTS, DEPRESSIONS & HOLES.
Runway edge lights: low intensity
Runway edge markings: YELLOW CONES.
RUNWAY 14  RUNWAY 32
Latitude: 44-17.473833N44-17.121000N
Longitude: 096-09.208833W096-08.905833W
Elevation: 1742.0 ft.1742.0 ft.
Traffic pattern: leftleft
Markings: NSTDNSTD
Runway end identifier lights: nono
Touchdown point: yes, no lightsyes, no lights

Airport Ownership and Management from official FAA records

Ownership: Publicly-owned
Owner: CITY OF TYLER
230 N TYLER ST
TYLER, MN 56178
Phone 507-247-5556
Manager: ROBERT WOLFINGTON
CITY OF TYLER, 230 N TYLER ST.
TYLER, MN 56178
Phone 507-247-5556

Airport Operational Statistics

Aircraft based on the field: 3
Single engine airplanes: 3
    
Aircraft operations: avg 42/week *
73% local general aviation
27% transient general aviation
* for 12-month period ending 31 August 2019

Additional Remarks

CFM SNW REMOVAL & WINT CONDS WITH AMGR FM 0800-1700, CALL 507-247-5556.
FOR CD CTC MINNEAPOLIS ARTCC AT 651-463-5588.

Instrument Procedures

There are no published instrument procedures at 63Y.

Some nearby airports with instrument procedures:

KMML - Southwest Minnesota Regional Airport - Marshall/Ryan Field (17 nm NE)
KPQN - Pipestone Municipal Airport (19 nm S)
KTKC - Tracy Municipal Airport (23 nm E)
KDVP - Slayton Municipal Airport (24 nm SE)
KCNB - Myers Field Airport (27 nm N)
 
Loc | Ops | Rwys | IFR | FBO | Links
Com | Nav | Svcs | Stats | Notes
Area around 63Y (Tyler Municipal Airport)
 
Road maps at: MapQuest Bing Google
 
Aerial photo
WARNING: Photo may not be current or correct
Aerial photo of 63Y (Tyler Municipal Airport)
Photo by Thomas W. Young
Photo taken 27-Aug-2005
view to the north

Do you have a better or more recent aerial photo of Tyler Municipal Airport that you would like to share? If so, please send us your photo.

 
Sectional chart

 
Airport distance calculator
Flying to Tyler Municipal Airport? Find the distance to fly.

From to 63Y

Sunrise and sunset
Times for 13-Jul-2020
 Local
(UTC-5)
 Zulu
(UTC)
Morning civil twilight05:1910:19
Sunrise05:5510:55
Sunset21:0602:06
Evening civil twilight21:4102:41

Current date and time
Zulu (UTC)  13-Jul-2020 21:43:53
Local (UTC-5)  13-Jul-2020 16:43:53
 
METAR
KMML 
17nm NE 
132056Z AUTO 19019G25KT 10SM SCT055 31/21 A2974 RMK AO2 PK WND 17028/2012 SLP064 T03060206 55009
KPQN 
21nm S 
132115Z 21019KT 10SM 29/21 A2977 RMK AO2
KTKC 
23nm E 
132116Z AUTO 18015G23KT 10SM CLR 31/21 A2976 RMK AO2 T03050205 TSNO
KDVP 
24nm SE 
132113Z AUTO 17019G25KT 10SM CLR 29/16 A2979 RMK AO2 T02940159
KCNB 
27nm N 
132116Z AUTO 19010G18KT 170V250 10SM SCT050 OVC060 31/18 A2973 RMK AO2 T03090182
KBKX 
29nm W 
132056Z AUTO 19017G27KT 10SM OVC049 29/21 A2973 RMK AO2 PK WND 20027/2048 SLP069 T02940206 55000
TAF
KRWF 
48nm E 
131739Z 1318/1418 15017G27KT P6SM FEW080 FM140100 18012KT P6SM SCT050 FM140200 18011KT 6SM -RA BR SCT030 BKN060 TEMPO 1403/1407 2SM TSRA BR BKN030CB FM140900 34008KT 6SM -RA VCTS OVC035CB FM141400 34009KT P6SM OVC035
KFSD 
50nm SW 
131733Z 1318/1418 17018G32KT P6SM FEW200 FM140400 20007KT P6SM BKN250 PROB30 1408/1410 4SM TSRA BR OVC025CB FM141300 01008KT P6SM OVC035 PROB30 1413/1416 4SM TSRA BR OVC025CB FM141600 36012G17KT P6SM OVC030
NOTAMs
Click for the latest NOTAMs
NOTAMs are issued by the DoD/FAA and will open in a separate window not controlled by AirNav.

 

 
 

Would you like to see your business listed on this page?

 If your business provides an interesting product or service to pilots, flight crews, aircraft, or users of the Tyler Municipal Airport, you should consider listing it here.  To start the listing process, click on the button below
 
Add a business
 

Other Pages about Tyler Municipal Airport

Update a link
 
Copyright © AirNav, LLC. All rights reserved. Privacy Policy  Contact